createdAt,value
2018-08-09T00:02:15.648Z,29.11
2018-08-09T00:04:42.030Z,28.54
2018-08-09T00:07:08.060Z,28.85
2018-08-09T00:09:34.126Z,28.83
2018-08-09T00:12:00.161Z,28.28
2018-08-09T00:14:26.203Z,28.53
2018-08-09T00:16:52.262Z,28.62
2018-08-09T00:19:18.352Z,28.86
2018-08-09T00:21:44.559Z,29.07
2018-08-09T00:24:10.641Z,29.30
2018-08-09T00:26:36.760Z,28.39
2018-08-09T00:29:02.887Z,28.51
2018-08-09T00:31:29.130Z,28.04
2018-08-09T00:33:55.223Z,28.36
2018-08-09T00:36:21.406Z,27.83
2018-08-09T00:38:47.489Z,28.16
2018-08-09T00:41:13.640Z,28.17
2018-08-09T00:43:39.687Z,28.36
2018-08-09T00:46:05.753Z,28.42
2018-08-09T00:48:31.870Z,28.17
2018-08-09T00:50:58.033Z,28.26
2018-08-09T00:53:24.188Z,28.30
2018-08-09T00:58:29.125Z,28.08
2018-08-09T01:00:55.268Z,27.31
2018-08-09T01:03:21.404Z,27.29
2018-08-09T01:05:47.485Z,27.55
2018-08-09T01:08:13.628Z,27.74
2018-08-09T01:10:39.757Z,28.18
2018-08-09T01:13:06.114Z,28.37
2018-08-09T01:15:32.229Z,28.11
2018-08-09T01:17:58.415Z,28.01
2018-08-09T01:20:24.834Z,28.01
2018-08-09T01:22:50.927Z,27.84
2018-08-09T01:25:17.024Z,27.77
2018-08-09T01:27:43.181Z,27.88
2018-08-09T01:30:09.197Z,28.12
2018-08-09T01:32:35.175Z,28.11
2018-08-09T01:35:01.154Z,28.08
2018-08-09T01:37:27.129Z,27.82
2018-08-09T01:39:53.092Z,27.62
2018-08-09T01:42:19.148Z,27.24
2018-08-09T01:44:45.139Z,26.91
2018-08-09T01:47:11.086Z,26.98
2018-08-09T01:49:37.034Z,27.25
2018-08-09T01:52:02.991Z,27.27
2018-08-09T01:54:28.931Z,27.70
2018-08-09T01:56:54.867Z,27.67
2018-08-09T01:59:20.825Z,28.12
2018-08-09T02:01:46.783Z,27.95
2018-08-09T02:04:12.718Z,27.22
2018-08-09T02:06:38.675Z,27.58
2018-08-09T02:09:04.638Z,27.67
2018-08-09T02:11:30.567Z,27.39
2018-08-09T02:13:56.519Z,27.14
2018-08-09T02:16:22.471Z,27.53
2018-08-09T02:18:48.402Z,27.75
2018-08-09T02:21:14.337Z,27.43
2018-08-09T02:23:40.305Z,27.67
2018-08-09T02:26:06.251Z,27.56
2018-08-09T02:28:32.210Z,27.51
2018-08-09T02:30:58.135Z,27.38
2018-08-09T02:33:24.063Z,27.68
2018-08-09T02:35:50.007Z,27.70
2018-08-09T02:38:15.932Z,27.36
2018-08-09T02:40:41.877Z,27.40
2018-08-09T02:43:07.812Z,27.56
2018-08-09T02:45:33.765Z,27.27
2018-08-09T02:47:59.712Z,27.51
2018-08-09T02:50:25.673Z,27.45
2018-08-09T02:52:51.602Z,27.76
2018-08-09T02:55:17.546Z,27.50
2018-08-09T02:57:43.489Z,25.88
2018-08-09T03:00:09.440Z,25.54
2018-08-09T03:02:35.393Z,26.60
2018-08-09T03:05:01.316Z,26.98
2018-08-09T03:07:27.291Z,27.42
2018-08-09T03:09:53.257Z,27.56
2018-08-09T03:12:19.212Z,27.68
2018-08-09T03:14:45.143Z,27.50
2018-08-09T03:17:11.158Z,27.47
2018-08-09T03:19:37.086Z,27.16
2018-08-09T03:22:03.021Z,27.72
2018-08-09T03:24:29.134Z,27.26
2018-08-09T03:26:55.060Z,27.25
2018-08-09T03:29:21.020Z,27.45
2018-08-09T03:31:47.042Z,27.66
2018-08-09T03:34:13.008Z,27.43
2018-08-09T03:36:38.963Z,27.24
2018-08-09T03:39:04.899Z,26.91
2018-08-09T03:41:30.867Z,26.68
2018-08-09T03:43:56.852Z,26.39
2018-08-09T03:46:22.830Z,26.44
2018-08-09T03:48:48.835Z,26.39
2018-08-09T03:51:15.954Z,26.03
2018-08-09T03:53:41.932Z,26.41
2018-08-09T03:56:07.895Z,27.19
2018-08-09T03:58:33.859Z,26.98
2018-08-09T04:00:59.845Z,26.92
2018-08-09T04:03:25.793Z,26.78
2018-08-09T04:05:51.738Z,26.87
2018-08-09T04:08:17.672Z,26.91
2018-08-09T04:10:43.603Z,26.88
2018-08-09T04:13:09.655Z,27.12
2018-08-09T04:15:35.632Z,27.22
2018-08-09T04:18:01.609Z,27.25
2018-08-09T04:20:27.556Z,27.21
2018-08-09T04:22:53.490Z,26.95
2018-08-09T04:25:19.442Z,27.27
2018-08-09T04:27:45.404Z,27.51
2018-08-09T04:30:11.359Z,27.41
2018-08-09T04:32:37.299Z,27.16
2018-08-09T04:35:03.241Z,26.97
2018-08-09T04:37:29.179Z,27.13
2018-08-09T04:39:55.100Z,26.86
2018-08-09T04:42:21.063Z,26.88
2018-08-09T04:44:47.014Z,27.11
2018-08-09T04:47:12.977Z,26.33
2018-08-09T04:49:38.922Z,26.18
2018-08-09T04:52:04.860Z,26.91
2018-08-09T04:54:32.404Z,27.15
2018-08-09T04:56:58.470Z,27.71
2018-08-09T04:59:24.469Z,27.77
2018-08-09T05:01:50.430Z,27.44
2018-08-09T05:04:16.468Z,27.44
2018-08-09T05:06:42.434Z,27.44
2018-08-09T05:09:08.364Z,27.42
2018-08-09T05:11:34.341Z,28.05
2018-08-09T05:14:00.272Z,28.05
2018-08-09T05:16:26.216Z,28.10
2018-08-09T05:18:52.185Z,28.28
2018-08-09T05:21:18.127Z,28.44
2018-08-09T05:23:44.080Z,28.02
2018-08-09T05:26:10.005Z,28.52
2018-08-09T05:28:35.931Z,28.85
2018-08-09T05:31:01.860Z,27.88
2018-08-09T05:33:27.772Z,27.48
2018-08-09T05:35:53.715Z,27.89
2018-08-09T05:38:19.655Z,28.56
2018-08-09T05:40:45.612Z,29.11
2018-08-09T05:43:11.566Z,29.24
2018-08-09T05:45:37.512Z,29.00
2018-08-09T05:48:03.441Z,29.43
2018-08-09T05:50:29.450Z,28.85
2018-08-09T05:52:55.495Z,29.03
2018-08-09T05:55:21.334Z,28.91
2018-08-09T05:57:47.257Z,28.89
2018-08-09T06:00:13.207Z,28.86
2018-08-09T06:02:39.168Z,29.30
2018-08-09T06:05:05.112Z,29.20
2018-08-09T06:07:31.075Z,29.27
2018-08-09T06:09:57.008Z,29.31
2018-08-09T06:12:22.938Z,29.49
2018-08-09T06:14:48.870Z,29.94
2018-08-09T06:17:14.808Z,30.10
2018-08-09T06:19:40.736Z,29.81
2018-08-09T06:22:06.668Z,30.02
2018-08-09T06:24:32.597Z,30.68
2018-08-09T06:26:58.541Z,31.03
2018-08-09T06:29:24.501Z,31.05
2018-08-09T06:31:50.448Z,31.15
2018-08-09T06:34:16.412Z,31.47
2018-08-09T06:36:42.355Z,31.48
2018-08-09T06:39:08.293Z,31.64
2018-08-09T06:41:34.230Z,31.77
2018-08-09T06:44:00.191Z,31.94
2018-08-09T06:46:26.154Z,31.94
2018-08-09T06:48:52.114Z,32.05
2018-08-09T06:51:18.046Z,32.09
2018-08-09T06:53:43.991Z,32.18
2018-08-09T06:56:09.967Z,32.37
2018-08-09T06:58:35.927Z,32.27
2018-08-09T07:01:01.858Z,32.24
2018-08-09T07:03:27.804Z,32.50
2018-08-09T07:05:53.759Z,32.36
2018-08-09T07:08:19.712Z,32.42
2018-08-09T07:10:45.655Z,32.49
2018-08-09T07:13:11.606Z,32.63
2018-08-09T07:15:37.544Z,32.64
2018-08-09T07:18:03.518Z,32.63
2018-08-09T07:20:29.538Z,32.84
2018-08-09T07:22:55.459Z,32.73
2018-08-09T07:25:21.452Z,32.55
2018-08-09T07:27:47.390Z,32.87
2018-08-09T07:30:13.366Z,32.91
2018-08-09T07:32:39.291Z,33.15
2018-08-09T07:35:05.214Z,33.23
2018-08-09T07:37:31.148Z,33.15
2018-08-09T07:39:57.101Z,33.10
2018-08-09T07:42:23.039Z,33.25
2018-08-09T07:44:48.972Z,33.33
2018-08-09T07:47:14.920Z,33.34
2018-08-09T07:49:40.898Z,33.01
2018-08-09T07:52:06.860Z,33.34
2018-08-09T07:54:32.815Z,33.35
2018-08-09T07:56:58.784Z,33.54
2018-08-09T07:59:24.726Z,33.54
2018-08-09T08:01:50.668Z,33.58
2018-08-09T08:04:16.634Z,33.31
2018-08-09T08:06:42.571Z,33.22
2018-08-09T08:09:08.540Z,33.58
2018-08-09T08:11:34.487Z,33.17
2018-08-09T08:14:00.429Z,33.51
2018-08-09T08:16:26.380Z,33.58
2018-08-09T08:18:52.332Z,33.52
2018-08-09T08:21:18.332Z,32.91
2018-08-09T08:23:44.287Z,33.36
2018-08-09T08:26:10.227Z,33.51
2018-08-09T08:28:36.191Z,33.41
2018-08-09T08:31:02.141Z,33.37
2018-08-09T08:33:28.092Z,33.41
2018-08-09T08:35:54.020Z,33.36
2018-08-09T08:38:19.948Z,33.44
2018-08-09T08:40:45.876Z,33.39
2018-08-09T08:43:11.803Z,33.38
2018-08-09T08:45:37.749Z,32.55
2018-08-09T08:48:03.677Z,32.46
2018-08-09T08:50:29.611Z,32.08
2018-08-09T08:52:55.620Z,32.30
2018-08-09T08:55:21.631Z,32.39
2018-08-09T08:57:47.615Z,32.21
2018-08-09T09:00:13.621Z,31.94
2018-08-09T09:02:39.545Z,32.06
2018-08-09T09:05:05.535Z,32.25
2018-08-09T09:07:31.441Z,32.12
2018-08-09T09:09:57.508Z,32.02
2018-08-09T09:12:23.469Z,31.98
2018-08-09T09:14:49.443Z,32.11
2018-08-09T09:17:15.389Z,31.96
2018-08-09T09:19:41.344Z,32.07
2018-08-09T09:22:07.280Z,32.22
2018-08-09T09:24:33.224Z,32.19
2018-08-09T09:26:59.170Z,32.25
2018-08-09T09:29:25.143Z,32.34
2018-08-09T09:31:51.071Z,32.12
2018-08-09T09:34:16.999Z,31.60
2018-08-09T09:36:42.944Z,31.60
2018-08-09T09:39:08.874Z,31.72
2018-08-09T09:41:34.820Z,32.00
2018-08-09T09:44:00.762Z,31.96
2018-08-09T09:46:26.688Z,31.65
2018-08-09T09:48:52.632Z,31.75
2018-08-09T09:51:18.586Z,31.75
2018-08-09T09:53:44.531Z,31.93
2018-08-09T09:56:10.475Z,32.34
2018-08-09T09:58:36.427Z,31.94
2018-08-09T10:01:02.388Z,32.07
2018-08-09T10:03:28.309Z,32.23
2018-08-09T10:05:54.298Z,32.21
2018-08-09T10:08:20.244Z,31.77
2018-08-09T10:10:46.200Z,31.67
2018-08-09T10:13:12.150Z,32.22
2018-08-09T10:15:38.109Z,32.22
2018-08-09T10:18:04.037Z,32.17
2018-08-09T10:20:30.000Z,32.00
2018-08-09T10:22:55.929Z,31.77
2018-08-09T10:25:21.891Z,31.27
2018-08-09T10:27:47.831Z,31.29
2018-08-09T10:30:13.781Z,31.33
2018-08-09T10:32:39.713Z,31.44
2018-08-09T10:35:05.638Z,31.32
2018-08-09T10:37:31.564Z,31.60
2018-08-09T10:39:57.516Z,31.79
2018-08-09T10:42:23.475Z,32.09
2018-08-09T10:44:49.431Z,32.28
2018-08-09T10:47:15.367Z,31.94
2018-08-09T10:49:41.309Z,31.74
2018-08-09T10:52:07.286Z,31.25
2018-08-09T10:54:33.232Z,31.40
2018-08-09T10:56:59.196Z,31.56
2018-08-09T10:59:25.164Z,31.09
2018-08-09T11:01:51.170Z,31.04
2018-08-09T11:04:17.084Z,31.01
2018-08-09T11:06:43.030Z,31.18
2018-08-09T11:09:08.964Z,31.69
2018-08-09T11:11:34.924Z,31.65
2018-08-09T11:14:00.837Z,31.56
2018-08-09T11:16:26.811Z,31.33
2018-08-09T11:18:52.754Z,31.62
2018-08-09T11:21:18.684Z,31.71
2018-08-09T11:23:44.657Z,32.15
2018-08-09T11:26:10.598Z,32.28
2018-08-09T11:28:36.521Z,32.39
2018-08-09T11:31:02.495Z,31.68
2018-08-09T11:33:31.314Z,31.56
2018-08-09T11:35:57.252Z,31.29
2018-08-09T11:38:23.180Z,31.76
2018-08-09T11:40:49.133Z,31.94
2018-08-09T11:43:15.070Z,32.13
2018-08-09T11:45:40.993Z,31.70
2018-08-09T11:48:06.963Z,31.50
2018-08-09T11:50:32.894Z,31.76
2018-08-09T11:52:58.841Z,31.42
2018-08-09T11:55:24.776Z,31.51
2018-08-09T11:57:50.722Z,31.79
2018-08-09T12:00:16.676Z,31.72
2018-08-09T12:02:42.615Z,31.64
2018-08-09T12:05:08.549Z,31.79
2018-08-09T12:07:34.517Z,31.75
2018-08-09T12:10:00.474Z,31.87
2018-08-09T12:12:26.416Z,32.01
2018-08-09T12:14:52.357Z,32.10
2018-08-09T12:17:18.277Z,32.06
2018-08-09T12:19:44.237Z,31.91
2018-08-09T12:22:10.186Z,32.11
2018-08-09T12:24:36.110Z,31.97
2018-08-09T12:27:02.130Z,31.97
2018-08-09T12:29:28.062Z,31.87
2018-08-09T12:31:54.009Z,31.76
2018-08-09T12:34:19.932Z,31.67
2018-08-09T12:36:45.919Z,31.85
2018-08-09T12:39:11.820Z,31.90
2018-08-09T12:41:37.757Z,32.09
2018-08-09T12:44:03.709Z,31.73
2018-08-09T12:46:29.673Z,32.07
2018-08-09T12:48:55.608Z,32.14
2018-08-09T12:51:21.523Z,31.88
2018-08-09T12:53:47.471Z,31.94
2018-08-09T12:56:13.423Z,32.00
2018-08-09T12:58:39.364Z,32.22
2018-08-09T13:01:05.304Z,31.94
2018-08-09T13:03:31.272Z,31.97
2018-08-09T13:05:57.230Z,32.20
2018-08-09T13:08:23.185Z,31.95
2018-08-09T13:10:49.121Z,32.16
2018-08-09T13:13:15.045Z,32.41
2018-08-09T13:15:41.012Z,32.40
2018-08-09T13:18:07.998Z,32.74
2018-08-09T13:20:33.954Z,32.57
2018-08-09T13:22:59.938Z,32.36
2018-08-09T13:25:25.853Z,32.24
2018-08-09T13:27:51.817Z,32.34
2018-08-09T13:30:17.789Z,31.97
2018-08-09T13:32:43.713Z,32.22
2018-08-09T13:35:09.644Z,31.96
2018-08-09T13:37:35.604Z,32.08
2018-08-09T13:40:01.528Z,32.32
2018-08-09T13:42:27.465Z,32.52
2018-08-09T13:44:53.413Z,32.71
2018-08-09T13:47:19.371Z,32.72
2018-08-09T13:49:45.316Z,32.82
2018-08-09T13:52:11.266Z,32.69
2018-08-09T13:54:37.225Z,32.94
2018-08-09T13:57:03.193Z,33.16
2018-08-09T13:59:29.155Z,32.88
2018-08-09T14:01:55.117Z,32.30
2018-08-09T14:04:21.086Z,32.58
2018-08-09T14:06:47.030Z,32.46
2018-08-09T14:09:12.980Z,32.44
2018-08-09T14:11:38.924Z,32.27
2018-08-09T14:14:04.879Z,32.02
2018-08-09T14:16:30.812Z,32.17
2018-08-09T14:18:56.768Z,32.07
2018-08-09T14:21:22.752Z,32.29
2018-08-09T14:23:48.704Z,32.05
2018-08-09T14:26:14.663Z,32.27
2018-08-09T14:28:40.633Z,32.20
2018-08-09T14:31:06.592Z,32.15
2018-08-09T14:33:32.551Z,32.09
2018-08-09T14:35:58.498Z,32.13
2018-08-09T14:38:24.469Z,32.22
2018-08-09T14:40:50.417Z,32.37
2018-08-09T14:43:16.392Z,32.53
2018-08-09T14:45:42.331Z,32.34
2018-08-09T14:48:08.301Z,32.14
2018-08-09T14:50:34.243Z,32.27
2018-08-09T14:53:00.192Z,32.29
2018-08-09T14:55:26.140Z,32.14
2018-08-09T14:57:52.086Z,32.04
2018-08-09T15:00:18.046Z,32.41
2018-08-09T15:02:43.983Z,32.43
2018-08-09T15:05:09.928Z,32.41
2018-08-09T15:07:35.864Z,32.26
2018-08-09T15:10:01.824Z,32.43
2018-08-09T15:12:27.760Z,32.66
2018-08-09T15:14:53.703Z,32.52
2018-08-09T15:17:19.734Z,32.45
2018-08-09T15:19:45.665Z,32.60
2018-08-09T15:22:11.608Z,32.46
2018-08-09T15:24:37.545Z,32.55
2018-08-09T15:29:35.969Z,32.56
2018-08-09T15:32:01.902Z,32.88
2018-08-09T15:34:27.875Z,32.93
2018-08-09T15:36:53.819Z,32.67
2018-08-09T15:39:19.784Z,32.51
2018-08-09T15:41:45.741Z,32.87
2018-08-09T15:44:11.703Z,32.99
2018-08-09T15:46:37.647Z,32.75
2018-08-09T15:49:03.629Z,33.06
2018-08-09T15:51:29.581Z,33.17
2018-08-09T15:53:55.509Z,33.37
2018-08-09T15:56:21.460Z,33.33
2018-08-09T15:58:47.419Z,33.19
2018-08-09T16:01:13.354Z,33.14
2018-08-09T16:03:39.307Z,33.03
2018-08-09T16:06:05.270Z,33.21
2018-08-09T16:08:31.231Z,32.98
2018-08-09T16:10:57.205Z,33.31
2018-08-09T16:13:23.181Z,33.19
2018-08-09T16:15:49.145Z,32.51
2018-08-09T16:18:15.118Z,32.63
2018-08-09T16:20:41.068Z,32.97
2018-08-09T16:23:07.062Z,33.21
2018-08-09T16:25:33.021Z,33.41
2018-08-09T16:27:58.990Z,33.35
2018-08-09T16:30:24.968Z,33.35
2018-08-09T16:32:50.900Z,33.50
2018-08-09T16:35:16.869Z,33.60
2018-08-09T16:37:42.827Z,33.66
2018-08-09T16:40:08.795Z,33.61
2018-08-09T16:42:34.736Z,33.65
2018-08-09T16:45:00.682Z,33.69
2018-08-09T16:47:26.692Z,33.74
2018-08-09T16:49:52.636Z,33.56
2018-08-09T16:52:18.601Z,33.56
2018-08-09T16:54:44.571Z,33.66
2018-08-09T16:57:10.563Z,33.64
2018-08-09T16:59:36.528Z,33.64
2018-08-09T17:02:02.520Z,33.69
2018-08-09T17:04:28.515Z,33.69
2018-08-09T17:06:54.565Z,33.72
2018-08-09T17:09:20.540Z,33.69
2018-08-09T17:11:46.512Z,33.67
2018-08-09T17:14:12.466Z,33.61
2018-08-09T17:16:38.491Z,33.52
2018-08-09T17:19:04.481Z,33.30
2018-08-09T17:21:30.475Z,32.92
2018-08-09T17:23:56.413Z,33.09
2018-08-09T17:26:22.365Z,33.29
2018-08-09T17:28:48.316Z,33.12
2018-08-09T17:31:14.387Z,33.43
2018-08-09T17:33:40.397Z,33.30
2018-08-09T17:36:06.347Z,33.41
2018-08-09T17:38:32.275Z,33.41
2018-08-09T17:40:58.262Z,33.55
2018-08-09T17:43:24.342Z,33.55
2018-08-09T17:45:50.260Z,33.51
2018-08-09T17:48:16.229Z,33.62
2018-08-09T17:50:42.187Z,33.61
2018-08-09T17:53:08.140Z,33.57
2018-08-09T17:55:34.112Z,33.56
2018-08-09T17:58:00.080Z,33.60
2018-08-09T18:00:26.012Z,33.64
2018-08-09T18:02:51.997Z,33.55
2018-08-09T18:05:17.981Z,33.60
2018-08-09T18:07:43.973Z,33.66
2018-08-09T18:10:09.925Z,33.67
2018-08-09T18:12:35.936Z,33.68
2018-08-09T18:15:01.980Z,33.69
2018-08-09T18:17:28.140Z,33.70
2018-08-09T18:19:54.225Z,33.69
2018-08-09T18:22:20.271Z,33.67
2018-08-09T18:24:46.231Z,33.67
2018-08-09T18:27:12.254Z,33.66
2018-08-09T18:29:38.256Z,33.67
2018-08-09T18:32:04.224Z,33.69
2018-08-09T18:34:30.209Z,33.69
2018-08-09T18:36:56.165Z,33.69
2018-08-09T18:39:22.133Z,33.69
2018-08-09T18:41:48.112Z,33.68
2018-08-09T18:44:14.042Z,33.67
2018-08-09T18:46:40.029Z,33.57
2018-08-09T18:49:06.066Z,33.42
2018-08-09T18:51:32.044Z,33.56
2018-08-09T18:53:58.109Z,33.46
2018-08-09T18:56:24.132Z,33.63
2018-08-09T18:58:50.114Z,33.65
2018-08-09T19:01:16.122Z,33.60
2018-08-09T19:03:42.179Z,33.62
2018-08-09T19:06:08.137Z,33.68
2018-08-09T19:08:34.261Z,33.70
2018-08-09T19:11:00.603Z,33.68
2018-08-09T19:13:26.632Z,33.69
2018-08-09T19:15:52.686Z,33.70
2018-08-09T19:18:18.671Z,33.66
2018-08-09T19:20:44.617Z,33.72
2018-08-09T19:23:10.567Z,33.72
2018-08-09T19:25:36.529Z,33.71
2018-08-09T19:28:02.887Z,33.73
2018-08-09T19:30:28.870Z,33.71
2018-08-09T19:32:54.820Z,33.70
2018-08-09T19:35:20.771Z,33.73
2018-08-09T19:37:46.785Z,33.68
2018-08-09T19:40:12.793Z,33.70
2018-08-09T19:42:38.748Z,33.71
2018-08-09T19:45:08.777Z,33.74
2018-08-09T19:47:35.302Z,33.69
2018-08-09T19:50:01.342Z,33.68
2018-08-09T19:52:27.557Z,33.68
2018-08-09T19:54:59.120Z,33.60
2018-08-09T19:57:25.052Z,33.63
2018-08-09T19:59:51.012Z,32.90
2018-08-09T20:02:16.976Z,32.71
2018-08-09T20:04:42.953Z,32.46
2018-08-09T20:07:08.893Z,32.46
2018-08-09T20:09:34.860Z,32.44
2018-08-09T20:12:00.862Z,32.55
2018-08-09T20:14:26.906Z,32.55
2018-08-09T20:16:52.904Z,32.94
2018-08-09T20:19:18.890Z,33.11
2018-08-09T20:21:44.849Z,33.06
2018-08-09T20:24:10.806Z,33.00
2018-08-09T20:26:36.739Z,33.06
2018-08-09T20:29:02.796Z,33.16
2018-08-09T20:31:28.677Z,33.05
2018-08-09T20:33:54.663Z,33.03
2018-08-09T20:36:20.612Z,33.04
2018-08-09T20:38:46.604Z,32.95
2018-08-09T20:41:12.589Z,32.93
2018-08-09T20:43:38.559Z,32.83
2018-08-09T20:46:04.569Z,32.89
2018-08-09T20:48:30.591Z,32.97
2018-08-09T20:50:56.635Z,33.00
2018-08-09T20:53:22.617Z,32.89
2018-08-09T20:55:48.640Z,32.97
2018-08-09T20:58:14.612Z,32.98
2018-08-09T21:00:40.552Z,33.13
2018-08-09T21:03:06.491Z,32.79
2018-08-09T21:05:33.781Z,33.05
2018-08-09T21:07:59.729Z,33.18
2018-08-09T21:10:25.680Z,33.04
2018-08-09T21:12:51.628Z,33.16
2018-08-09T21:15:17.632Z,33.03
2018-08-09T21:17:43.654Z,33.09
2018-08-09T21:20:09.596Z,32.93
2018-08-09T21:22:35.581Z,32.97
2018-08-09T21:25:01.529Z,32.98
2018-08-09T21:27:27.592Z,32.97
2018-08-09T21:29:53.568Z,33.09
2018-08-09T21:32:19.538Z,32.87
2018-08-09T21:34:45.458Z,33.01
2018-08-09T21:37:11.439Z,32.81
2018-08-09T21:39:37.415Z,32.61
2018-08-09T21:42:03.348Z,32.75
2018-08-09T21:44:29.320Z,32.58
2018-08-09T21:46:55.267Z,32.52
2018-08-09T21:49:21.231Z,32.53
2018-08-09T21:51:47.171Z,32.64
2018-08-09T21:54:13.126Z,32.62
2018-08-09T21:56:39.056Z,32.59
2018-08-09T21:59:05.012Z,32.52
2018-08-09T22:01:30.948Z,32.27
2018-08-09T22:03:56.882Z,32.18
2018-08-09T22:06:22.829Z,32.10
2018-08-09T22:08:48.789Z,32.06
2018-08-09T22:11:14.754Z,32.14
2018-08-09T22:13:40.711Z,31.71
2018-08-09T22:16:06.768Z,31.66
2018-08-09T22:18:32.697Z,32.20
2018-08-09T22:20:58.662Z,32.32
2018-08-09T22:23:24.605Z,32.43
2018-08-09T22:25:50.582Z,32.13
2018-08-09T22:28:16.580Z,32.02
2018-08-09T22:30:42.544Z,31.83
2018-08-09T22:33:08.527Z,32.13
2018-08-09T22:35:34.475Z,32.14
2018-08-09T22:38:00.475Z,31.96
2018-08-09T22:40:26.451Z,32.00
2018-08-09T22:42:52.376Z,31.94
2018-08-09T22:45:18.315Z,31.74
2018-08-09T22:47:44.253Z,32.02
2018-08-09T22:50:10.190Z,31.68
2018-08-09T22:52:36.155Z,31.97
2018-08-09T22:55:02.092Z,31.99
2018-08-09T22:57:28.027Z,31.93
2018-08-09T22:59:53.991Z,32.11
2018-08-09T23:02:19.954Z,31.54
2018-08-09T23:04:45.931Z,31.60
2018-08-09T23:07:11.862Z,31.31
2018-08-09T23:09:37.782Z,31.47
2018-08-09T23:12:03.728Z,31.22
2018-08-09T23:14:29.689Z,31.56
2018-08-09T23:16:55.619Z,31.61
2018-08-09T23:19:21.567Z,31.68
2018-08-09T23:21:47.513Z,31.55
2018-08-09T23:24:13.453Z,31.60
2018-08-09T23:26:39.401Z,31.33
2018-08-09T23:29:05.360Z,31.58
2018-08-09T23:31:31.309Z,31.70
2018-08-09T23:33:57.271Z,31.28
2018-08-09T23:36:23.207Z,31.57
2018-08-09T23:38:49.144Z,31.33
2018-08-09T23:41:15.102Z,31.14
2018-08-09T23:43:41.025Z,31.39
2018-08-09T23:46:06.971Z,31.28
2018-08-09T23:48:32.928Z,31.05
2018-08-09T23:50:58.945Z,31.22
2018-08-09T23:53:24.913Z,31.14
2018-08-09T23:55:50.871Z,31.06
2018-08-09T23:58:16.820Z,30.87
